Kylarrick House Airstrip

GB-0867 · Scotland, United Kingdom

METAR history GB-0867 · Kylarrick House Airstrip

Below you see METARs of the last few days. Select a year to browse through older METARs, from the year 2007 onwards.

March 5, 2024

Time Code Weather Temp. Visibility Ceiling Wind METAR/SPECI
01:20
M
5 °C 10 km+ 3,000 ft 100° 100° 12 kt METAR EGQA 050120Z AUTO 10012KT 9999 OVC030/// 05/02 Q1007
00:50
M
5 °C 10 km+ 3,000 ft 100° 100° 11 kt METAR EGQA 050050Z AUTO 10011KT 9999 OVC030/// 05/02 Q1007
00:20
V
5 °C 10 km+ 3,400 ft 100° 100° 12 kt METAR EGQA 050020Z AUTO 10012KT 9999 BKN034/// 05/02 Q1006

March 4, 2024

Time Code Weather Temp. Visibility Ceiling Wind METAR/SPECI
23:20
V
4 °C 10 km+ - 100° 100° 9 kt METAR EGQA 042320Z AUTO 10009KT 9999 NCD 04/01 Q1007
22:50
V
4 °C 10 km+ - 100° 100° 10 kt METAR EGQA 042250Z AUTO 10010KT 9999 FEW036/// 04/01 Q1007
22:20
V
4 °C 10 km+ - 100° 100° 11 kt METAR EGQA 042220Z AUTO 10011KT 9999 NCD 04/01 Q1007
21:50
V
4 °C 10 km+ - 100° 100° 11 kt METAR EGQA 042150Z AUTO 10011KT 9999 NCD 04/00 Q1007
21:20
V
4 °C 10 km+ - 100° 100° 10 kt METAR EGQA 042120Z AUTO 10010KT 9999 NCD 04/00 Q1007
20:50
V
4 °C 10 km+ - 100° 100° 10 kt METAR EGQA 042050Z AUTO 10010KT 9999 NCD 04/00 Q1007
20:20
V
4 °C 10 km+ - 110° 110° 12 kt METAR EGQA 042020Z AUTO 11012KT 9999 NCD 04/00 Q1007
19:20
V
5 °C 10 km+ - 120° 120° 12 kt METAR EGQA 041920Z AUTO 12012KT 9999 NCD 05/00 Q1006
18:50
V
4 °C 10 km+ - 120° 120° 8 kt METAR EGQA 041850Z AUTO 12008KT 9999 NCD 04/00 Q1007
18:20
V
5 °C 10 km+ - 110° 110° 7 kt METAR EGQA 041820Z AUTO 11007KT 9999 NCD 05/00 Q1007
17:50
V
6 °C 10 km+ - 110° 110° 11 kt METAR EGQA 041750Z AUTO 11011KT 9999 NCD 06/01 Q1006
17:20
V
6 °C 10 km+ - 110° 110° 11 kt METAR EGQA 041720Z AUTO 11011KT 9999 NCD 06/01 Q1006
16:50
V
7 °C 10 km+ - 100° 100° 6 kt METAR EGQA 041650Z 10006KT 9999 FEW100 07/02 Q1007 RMK BLU
16:20
V
7 °C 10 km+ - 090° 090° 10 kt METAR EGQA 041620Z AUTO 09010KT 9999 NCD 07/02 Q1006
15:50
V
8 °C 10 km+ - 110° 110° 11 kt METAR EGQA 041550Z AUTO 11011KT 9999 NCD 08/01 Q1006
15:20
V
8 °C 10 km+ - 110° 110° 13 kt METAR EGQA 041520Z AUTO 11013KT 9999 NCD 08/01 Q1006
14:50
V
9 °C 10 km+ - 100° 100° 11 kt METAR EGQA 041450Z AUTO 10011KT 9999 NCD 09/01 Q1006
14:20
V
8 °C 10 km+ - 070° 070° 10 kt METAR EGQA 041420Z AUTO 07010KT 9999 NCD 08/02 Q1006
13:50
V
8 °C 10 km+ - 090° 090° 12 kt METAR EGQA 041350Z AUTO 09012KT 9999 NCD 08/02 Q1007
13:20
V
9 °C 10 km+ - 100° 100° 10 kt METAR EGQA 041320Z AUTO 10010KT 9999 NCD 09/01 Q1007
12:50
V
8 °C 10 km+ - 110° 110° 9 kt METAR EGQA 041250Z AUTO 11009KT 9999 NCD 08/01 Q1007
12:20
V
8 °C 10 km+ - 120° 120° 8 kt METAR EGQA 041220Z AUTO 12008KT 9999 NCD 08/02 Q1007
11:50
V
7 °C 10 km+ - 120° 120° 6 kt METAR EGQA 041150Z 12006KT 9999 FEW020 07/01 Q1008 RMK BLU
10:50
V
5 °C 10 km+ - 110° 110° 6 kt METAR EGQA 041050Z 11006KT 9999 FEW020 05/01 Q1008 RMK BLU
09:50
V
4 °C 10 km+ - 230° 230° 1 kt METAR EGQA 040950Z 23001KT 9999 FEW022 04/02 Q1009 RMK BLU
08:50
V
1 °C 10 km+ - 260° 260° 1 kt METAR EGQA 040850Z 26001KT 9999 FEW018 01/00 Q1008 RMK BLU
07:50
V
-3 °C 10 km+ - 270° 270° 3 kt METAR EGQA 040750Z AUTO 27003KT 9999 NCD M03/M03 Q1008
07:20
V
-4 °C 10 km+ - 250° 250° 4 kt METAR EGQA 040720Z AUTO 25004KT 9999 NCD M04/M04 Q1007
06:50
V
-4 °C 10 km+ - 250° 250° 3 kt METAR EGQA 040650Z AUTO 25003KT 9999 NCD M04/M04 Q1007
06:20
V
-4 °C 10 km+ - 270° 270° 2 kt METAR EGQA 040620Z AUTO 27002KT 9999 NCD M04/M05 Q1007
05:50
V
-4 °C 10 km+ - 250° 250° 4 kt METAR EGQA 040550Z AUTO 25004KT 9999 NCD M04/M04 Q1007
05:20
V
-3 °C 10 km+ - 210° 210° 3 kt METAR EGQA 040520Z AUTO 21003KT 9999 NCD M03/M04 Q1006
04:50
V
-3 °C 10 km+ - 260° 260° 4 kt METAR EGQA 040450Z AUTO 26004KT 9999 NCD M03/M03 Q1006
04:20
V
-3 °C 10 km+ - 270° 270° 3 kt METAR EGQA 040420Z AUTO 27003KT 9999 NCD M03/M04 Q1006
03:50
V
-4 °C 10 km+ - 250° 250° 2 kt METAR EGQA 040350Z AUTO 25002KT 9999 NCD M04/M05 Q1006
03:20
V
-3 °C 10 km+ - 160° 160° 3 kt METAR EGQA 040320Z AUTO 16003KT 9999 NCD M03/M04 Q1006
02:50
V
-3 °C 10 km+ - 200° 200° 3 kt METAR EGQA 040250Z AUTO 20003KT 9999 NCD M03/M04 Q1006
02:20
V
-1 °C 10 km+ - 150° 150° 3 kt METAR EGQA 040220Z AUTO 15003KT 9999 NCD M01/M03 Q1005
01:50
V
-1 °C 10 km+ - 210° 210° 1 kt METAR EGQA 040150Z AUTO 21001KT 9999 NCD M01/M02 Q1005
01:20
V
0 °C 10 km+ - 260° 260° 3 kt METAR EGQA 040120Z AUTO 26003KT 9999 NCD 00/M01 Q1005
00:50
V
2 °C 10 km+ - 290° 290° 4 kt METAR EGQA 040050Z AUTO 29004KT 9999 NCD 02/M01 Q1005
00:20
V
2 °C 10 km+ - 150° 150° 8 kt METAR EGQA 040020Z AUTO 15008KT 9999 NCD 02/M01 Q1004

March 3, 2024

Time Code Weather Temp. Visibility Ceiling Wind METAR/SPECI
23:50
V
3 °C 10 km+ - 160° 160° 9 kt METAR EGQA 032350Z AUTO 16009KT 9999 NCD 03/00 Q1004
23:20
V
2 °C 10 km+ - 170° 170° 6 kt METAR EGQA 032320Z AUTO 17006KT 9999 FEW160/// 02/01 Q1004
22:50
V
2 °C 10 km+ - 160° 160° 5 kt METAR EGQA 032250Z AUTO 16005KT 9999 NCD 02/01 Q1004
22:20
V
2 °C 10 km+ 16,000 ft 160° 160° 5 kt METAR EGQA 032220Z AUTO 16005KT 9999 BKN160/// 02/00 Q1004
21:50
V
3 °C 10 km+ 15,000 ft 170° 170° 3 kt METAR EGQA 032150Z AUTO 17003KT 9999 OVC150/// 03/00 Q1004
21:20
V
3 °C 10 km+ 15,000 ft 180° 180° 4 kt METAR EGQA 032120Z AUTO 18004KT 9999 OVC150/// 03/00 Q1004
20:50
V
3 °C 10 km+ 16,000 ft 170° 170° 6 kt METAR EGQA 032050Z AUTO 17006KT 9999 OVC160/// 03/00 Q1004
20:20
V
4 °C 10 km+ 15,000 ft 160° 160° 5 kt METAR EGQA 032020Z AUTO 16005KT 9999 OVC150/// 04/01 Q1003
19:50
V
5 °C 10 km+ 15,000 ft 160° 160° 6 kt METAR EGQA 031950Z AUTO 16006KT 9999 OVC150/// 05/01 Q1003
19:20
V
4 °C 10 km+ - 120° 120° 6 kt METAR EGQA 031920Z AUTO 12006KT 9999 FEW160/// 04/01 Q1003
18:50
V
5 °C 10 km+ 16,000 ft 160° 160° 9 kt METAR EGQA 031850Z AUTO 16009KT 9999 BKN160/// 05/01 Q1003
18:20
V
5 °C 10 km+ 16,000 ft 160° 160° 8 kt METAR EGQA 031820Z AUTO 16008KT 9999 OVC160/// 05/00 Q1003
17:50
V
5 °C 10 km+ - 160° 160° 6 kt METAR EGQA 031750Z AUTO 16006KT 9999 NCD 05/00 Q1002
17:20
V
6 °C 10 km+ - 180° 180° 12 kt METAR EGQA 031720Z AUTO 18012KT 9999 FEW042/// 06/01 Q1001
16:50
V
7 °C 10 km+ - 180° 180° 9 kt METAR EGQA 031650Z AUTO 18009KT 9999 SCT044/// 07/01 Q1001
16:20
V
7 °C 10 km+ - 180° 180° 7 kt METAR EGQA 031620Z AUTO 18007KT 9999 NCD 07/01 Q1001
15:50
V
7 °C 10 km+ - 190° 190° 8 kt METAR EGQA 031550Z AUTO 19008KT 9999 FEW042/// 07/01 Q1001
15:20
V
8 °C 10 km+ 18,000 ft 180° 180° 8 kt METAR EGQA 031520Z AUTO 18008KT 9999 FEW041/// BKN180/// 08/01 Q1001
14:50
V
8 °C 10 km+ - 140° 140° 11 kt METAR EGQA 031450Z AUTO 14011KT 9999 FEW038/// 08/01 Q1001
14:20
V
8 °C 10 km+ 3,500 ft 150° 150° 10 kt METAR EGQA 031420Z AUTO 15010KT 9999 BKN035/// 08/02 Q1000
13:50
V
7 °C 10 km+ - 170° 170° 11 kt METAR EGQA 031350Z AUTO 17011KT 9999 SCT032/// 07/01 Q1000
13:20
V
7 °C 10 km+ - 160° 160° 12 kt METAR EGQA 031320Z AUTO 16012KT 9999 NCD 07/02 Q1000
12:50
V
7 °C 10 km+ - 170° 170° 12 kt METAR EGQA 031250Z AUTO 17012KT 9999 NCD 07/01 Q1000
12:20
M
7 °C 10 km+ 3,000 ft 120° 120° 13 kt METAR EGQA 031220Z AUTO 12013KT 9999 BKN030/// 07/03 Q0999
11:50
V
7 °C 10 km+ 4,000 ft 130° 130° 12 kt METAR EGQA 031150Z AUTO 13012KT 9999 FEW033/// BKN040/// 07/02 Q0999
11:20
V
7 °C 10 km+ 3,100 ft 130° 130° 12 kt METAR EGQA 031120Z AUTO 13012KT 9999 OVC031/// 07/03 Q0999
10:50
M
7 °C 10 km+ 2,700 ft 100° 100° 10 kt METAR EGQA 031050Z AUTO 10010KT 9999 OVC027/// 07/04 Q0999
10:20
M
7 °C 10 km+ 2,700 ft 100° 100° 10 kt METAR EGQA 031020Z AUTO 10010KT 9999 BKN027/// 07/04 Q0999
09:50
M
7 °C 10 km+ 2,900 ft 090° 090° 9 kt METAR EGQA 030950Z AUTO 09009KT 9999 OVC029/// 07/04 Q0998
09:20
V
7 °C 10 km+ 3,900 ft 090° 090° 11 kt METAR EGQA 030920Z AUTO 09011KT 9999 SCT028/// BKN039/// 07/04 Q0998
08:50
V
6 °C 10 km+ 3,300 ft 110° 110° 10 kt METAR EGQA 030850Z AUTO 11010KT 9999 BKN033/// SCT052/// 06/04 Q0998
08:20
V
4 °C 10 km+ - 340° 340° 2 kt METAR EGQA 030820Z AUTO 34002KT 9999 NCD 04/04 Q0997
07:50
V
3 °C 10 km+ - 340° 340° 2 kt METAR EGQA 030750Z AUTO 34002KT 9999 NCD 03/02 Q0997
07:20
V
4 °C 10 km+ - 120° 120° 6 kt METAR EGQA 030720Z AUTO 12006KT 9999 SCT180/// 04/03 Q0997
06:50
M
6 °C 10 km+ 2,000 ft 120° 120° 10 kt METAR EGQA 030650Z AUTO 12010KT 9999 OVC020/// 06/04 Q0997
06:20
I
6 °C 10 km+ 900 ft 090° 090° 12 kt METAR EGQA 030620Z AUTO 09012KT 9999 OVC009/// 06/05 Q0996
05:50
M
5 °C 10 km+ 1,200 ft 050° 050° 12 kt METAR EGQA 030550Z AUTO 05012KT 9999 // OVC012/// 05/04 Q0996
05:20
M
5 °C 10 km+ 1,100 ft 070° 070° 11 kt METAR EGQA 030520Z AUTO 07011KT 9999 // OVC011/// 05/03 Q0997
04:50
M
5 °C 10 km+ 1,000 ft 070° 070° 17 kt METAR EGQA 030450Z AUTO 07017KT 9999 -RA BKN010/// SCT053/// 05/03 Q0997
04:20
I
5 °C 10 km+ 900 ft 080° 080° 18 kt METAR EGQA 030420Z AUTO 08018KT 9999 -RA BKN009/// BKN039/// 05/04 Q0997
03:50
M
5 °C 10 km+ 1,000 ft 090° 090° 20 kt METAR EGQA 030350Z AUTO 09020KT 9999 -RA BKN010/// SCT040/// 05/04 Q0997
03:20
I
6 °C 10 km+ 900 ft 090° 090° 17 kt METAR EGQA 030320Z AUTO 09017KT 9999 -RA BKN009/// BKN027/// 06/04 Q0997
02:50
I
6 °C 6 km 700 ft 090° 090° 19 kt METAR EGQA 030250Z AUTO 09019KT 6000 -RA OVC007/// 06/04 Q0998
02:20
V
6 °C 10 km+ 3,700 ft 090° 090° 15 kt METAR EGQA 030220Z AUTO 09015KT 9999 -RA FEW009/// BKN037/// 06/05 Q0998
01:50
V
6 °C 10 km+ 4,100 ft 090° 090° 18 kt METAR EGQA 030150Z AUTO 09018KT 9999 -RA FEW010/// BKN041/// 06/05 Q0998
01:20
V
6 °C 10 km+ 3,100 ft 080° 080° 16 kt METAR EGQA 030120Z AUTO 08016KT 9999 // BKN031/// BKN098/// 06/04 Q0998
00:50
V
6 °C 10 km+ 3,800 ft 080° 080° 12 kt METAR EGQA 030050Z AUTO 08012KT 9999 FEW011/// BKN038/// 06/04 Q0998
00:20
V
5 °C 10 km+ - 080° 080° 10 kt METAR EGQA 030020Z AUTO 08010KT 9999 FEW031/// 05/04 Q0998

March 2, 2024

Time Code Weather Temp. Visibility Ceiling Wind METAR/SPECI
23:50
V
5 °C 10 km+ 3,500 ft 080° 080° 8 kt METAR EGQA 022350Z AUTO 08008KT 9999 FEW016/// BKN035/// 05/03 Q0998
23:20
V
4 °C 10 km+ 4,600 ft 090° 090° 8 kt METAR EGQA 022320Z AUTO 09008KT 9999 BKN046/// 04/03 Q0999
22:50
V
3 °C 10 km+ - 060° 060° 7 kt METAR EGQA 022250Z AUTO 06007KT 9999 FEW051/// 03/02 Q0999
22:20
V
3 °C 10 km+ 4,700 ft 080° 080° 7 kt METAR EGQA 022220Z AUTO 08007KT 9999 FEW024/// BKN047/// 03/02 Q0998
21:50
V
4 °C 10 km+ 3,100 ft 100° 100° 7 kt METAR EGQA 022150Z AUTO 10007KT 9999 BKN031/// 04/02 Q0998
21:20
V
4 °C 10 km+ - 090° 090° 10 kt METAR EGQA 022120Z AUTO 09010KT 9999 FEW029/// 04/02 Q0998
20:50
V
4 °C 10 km+ - 110° 110° 11 kt METAR EGQA 022050Z AUTO 11011KT 9999 SCT082/// 04/02 Q0998
20:20
V
1 °C 10 km+ - 130° 130° 2 kt METAR EGQA 022020Z AUTO 13002KT 9999 SCT061/// 01/M00 Q0998
19:50
V
2 °C 10 km+ - 110° 110° 5 kt METAR EGQA 021950Z AUTO 11005KT 9999 NCD 02/00 Q0997
19:20
V
2 °C 10 km+ - 090° 090° 2 kt METAR EGQA 021920Z AUTO 09002KT 9999 FEW054/// 02/00 Q0997
18:50
V
3 °C 10 km+ 5,000 ft 150° 150° 6 kt METAR EGQA 021850Z AUTO 15006KT 9999 BKN050/// 03/01 Q0996
18:20
V
4 °C 10 km+ - 160° 160° 10 kt METAR EGQA 021820Z AUTO 16010KT 9999 FEW051/// 04/02 Q0996
17:50
V
3 °C 10 km+ - 170° 170° 6 kt METAR EGQA 021750Z AUTO 17006KT 9999 SCT200/// 03/01 Q0995
17:20
V
4 °C 10 km+ - 180° 180° 8 kt METAR EGQA 021720Z AUTO 18008KT 9999 NCD 04/02 Q0995
16:50
V
5 °C 10 km+ 7,900 ft 190° 190° 8 kt METAR EGQA 021650Z AUTO 19008KT 9999 FEW056/// BKN079/// 05/03 Q0994
16:20
M
5 °C 10 km+ 1,900 ft 190° 190° 11 kt METAR EGQA 021620Z AUTO 19011KT 9999 BKN019/// SCT058/// 05/03 Q0994
15:50
V
6 °C 10 km+ - 180° 180° 8 kt METAR EGQA 021550Z AUTO 18008KT 9999 FEW013/// SCT053/// 06/03 Q0993
15:20
V
5 °C 10 km+ - 270° 270° 4 kt METAR EGQA 021520Z AUTO 27004KT 9999 // FEW012/// 05/03 Q0993
14:50
V
5 °C 10 km+ - 270° 270° 9 kt METAR EGQA 021450Z AUTO 27009KT 9999 // FEW007/// SCT022/// 05/03 Q0993
14:20
V
4 °C 10 km+ 3,100 ft 240° 240° 7 kt METAR EGQA 021420Z AUTO 24007KT 9999 -RA FEW010/// OVC031/// 04/03 Q0993
13:50
I
4 °C 6 km 900 ft 250° 250° 4 kt METAR EGQA 021350Z AUTO 25004KT 6000 -RA OVC009/// 04/02 Q0993
13:20
M
4 °C 6 km 1,300 ft 060° 060° 1 kt METAR EGQA 021320Z AUTO 06001KT 6000 -RA BKN013/// BKN028/// 04/01 Q0994
12:50
M
5 °C 10 km+ 2,800 ft 050° 050° 1 kt METAR EGQA 021250Z AUTO 05001KT 9999 -RA FEW019/// OVC028/// 05/02 Q0994
12:20
M
5 °C 10 km+ 1,400 ft 040° 040° 5 kt METAR EGQA 021220Z AUTO 04005KT 9999 -RA OVC014/// 05/01 Q0994
11:50
M
6 °C 10 km+ 1,000 ft 030° 030° 7 kt METAR EGQA 021150Z AUTO 03007KT 9999 -RA OVC010/// 06/04 Q0993
11:20
M
6 °C 10 km+ 1,300 ft 040° 040° 3 kt METAR EGQA 021120Z AUTO 04003KT 9999 OVC013/// 06/04 Q0993
10:50
V
6 °C 10 km+ 6,900 ft 060° 060° 5 kt METAR EGQA 021050Z AUTO 06005KT 9999 FEW011/// SCT047/// BKN069/// 06/04 Q0994
10:20
M
5 °C 10 km+ 1,000 ft 360° 360° 10 kt METAR EGQA 021020Z AUTO 36010KT 9999 // OVC010/// 05/04 Q0994
09:50
M
5 °C 10 km+ 1,100 ft 360° 360° 10 kt METAR EGQA 020950Z AUTO 36010KT 9999 // OVC011/// 05/04 Q0994
09:20
M
4 °C 10 km+ 1,400 ft 330° 330° 8 kt METAR EGQA 020920Z AUTO 33008KT 9999 // OVC014/// 04/03 Q0994
08:50
M
4 °C 10 km+ 1,100 ft 320° 320° 8 kt METAR EGQA 020850Z AUTO 32008KT 9999 // OVC011/// 04/03 Q0994
08:20
M
3 °C 10 km+ 1,000 ft 290° 290° 10 kt METAR EGQA 020820Z AUTO 29010KT 9999 // OVC010/// 03/02 Q0995
07:50
I
3 °C 4 km 1,100 ft 290° 290° 9 kt METAR EGQA 020750Z AUTO 29009KT 4000 RA OVC011/// 03/01 Q0995
07:20
M
2 °C 10 km+ 1,700 ft 290° 290° 10 kt METAR EGQA 020720Z AUTO 29010KT 9999 RA OVC017/// 02/01 Q0995
06:50
M
2 °C 10 km+ 1,700 ft 290° 290° 11 kt METAR EGQA 020650Z AUTO 29011KT 9999 // OVC017/// 02/01 Q0995
06:20
M
2 °C 10 km+ 1,300 ft 290° 290° 11 kt METAR EGQA 020620Z AUTO 29011KT 9999 // OVC013/// 02/01 Q0995
05:50
M
2 °C 10 km+ 1,300 ft 290° 290° 10 kt METAR EGQA 020550Z AUTO 29010KT 9999 // BKN013/// OVC020/// 02/01 Q0995